Terminal Aerodrome Forecast
Issued by NWS

Home | Current Version | Previous Version | Text Only | Print | Product List | Glossary On
Versions: 1 2 3 4 5 6 7 8 9 10 11 12 13 14 15 16
000
FTUS41 KBGM 050535
TAFELM
TAF
KELM 050535Z 0506/0606 00000KT P6SM OVC090
     FM050900 VRB03KT P6SM OVC045
     FM051200 06003KT P6SM SCT035 BKN250
     FM051600 04004KT P6SM BKN050 BKN250
     FM060300 07003KT P6SM -RA OVC050=

USA.gov is the U.S. government's official web portal to all federal, state and local government web resources and services.